Time;durP1;ratioP1;P1;durP2;ratioP2;P2;SDS_P1;SDS_P2;PMS_P1;PMS_P2;Temp;Humidity;BMP_temperature;BMP_pressure;BME280_temperature;BME280_humidity;BME280_pressure;Samples;Min_cycle;Max_cycle;Signal;HPM_P1;HPM_P2
2023/01/29 04:15:55;;;;;;;60.10;34.80;;;;;;;1.38;83.96;101585.39;105083;1301;24306;-57
2023/01/29 04:18:49;;;;;;;59.10;34.20;;;;;;;1.50;83.08;101583.71;106006;1281;25362;-58
2023/01/29 04:21:22;;;;;;;53.50;33.40;;;;;;;1.59;82.55;101583.95;105968;1282;25518;-61
2023/01/29 04:23:49;;;;;;;53.20;33.40;;;;;;;1.70;82.20;101583.73;105903;1271;472310;-58
2023/01/29 04:26:35;;;;;;;49.30;33.00;;;;;;;1.81;81.81;101578.55;106744;1278;25895;-60
2023/01/29 04:29:08;;;;;;;45.20;30.50;;;;;;;1.92;81.20;101587.73;106814;1272;25402;-58
2023/01/29 04:31:48;;;;;;;45.50;29.00;;;;;;;2.00;80.53;101591.89;106809;1272;25464;-57
2023/01/29 04:34:18;;;;;;;43.40;27.90;;;;;;;2.11;79.85;101596.63;106718;1272;24307;-57
2023/01/29 04:37:01;;;;;;;37.90;26.70;;;;;;;2.17;79.24;101602.10;106733;1275;25399;-58
2023/01/29 04:39:31;;;;;;;43.70;27.20;;;;;;;2.24;78.65;101603.30;106868;1275;25390;-59
2023/01/29 04:42:17;;;;;;;44.20;28.00;;;;;;;2.27;77.87;101609.02;106766;1272;25421;-60
2023/01/29 04:44:58;;;;;;;42.70;26.70;;;;;;;2.28;77.26;101606.33;106799;1272;25492;-59
2023/01/29 04:47:35;;;;;;;40.00;26.50;;;;;;;2.27;76.80;101610.56;106747;1273;25358;-59
2023/01/29 04:50:47;;;;;;;39.70;25.60;;;;;;;2.27;76.69;101614.16;106050;1272;1002839;-60
2023/01/29 04:53:38;;;;;;;39.90;26.40;;;;;;;2.29;76.01;101614.02;106311;1280;25443;-59
2023/01/29 04:56:37;;;;;;;40.30;24.90;;;;;;;2.28;75.71;101615.58;105985;1283;25679;-59
2023/01/29 04:59:06;;;;;;;36.80;25.40;;;;;;;2.30;75.30;101613.05;105592;1288;25499;-59
2023/01/29 05:01:34;;;;;;;40.60;25.20;;;;;;;2.31;75.48;101616.48;104655;1295;1003621;-58
2023/01/29 05:04:04;;;;;;;38.80;27.20;;;;;;;2.32;74.84;101618.74;105463;1290;25390;-58
2023/01/29 05:06:31;;;;;;;36.20;24.90;;;;;;;2.32;74.33;101617.89;105457;1290;22552;-58
2023/01/29 05:08:58;;;;;;;38.70;24.80;;;;;;;2.29;74.06;101621.24;104330;1291;1003099;-58
2023/01/29 05:11:25;;;;;;;37.40;25.60;;;;;;;2.29;73.88;101623.81;105361;1292;25427;-59
2023/01/29 05:13:55;;;;;;;38.80;26.60;;;;;;;2.33;73.48;101625.94;105117;1291;25535;-58
2023/01/29 05:16:24;;;;;;;39.20;25.90;;;;;;;2.33;73.20;101628.34;105401;1290;25521;-58
2023/01/29 05:18:52;;;;;;;40.50;26.90;;;;;;;2.31;72.73;101633.44;105417;1291;22579;-60
2023/01/29 05:21:19;;;;;;;40.80;24.40;;;;;;;2.30;72.87;101632.39;105360;1290;25363;-59
2023/01/29 05:23:56;;;;;;;35.50;23.90;;;;;;;2.30;72.69;101637.70;105308;1290;26053;-60
2023/01/29 05:29:11;;;;;;;40.10;25.90;;;;;;;2.31;72.59;101635.66;105298;1290;23635;-59
2023/01/29 05:31:38;;;;;;;36.30;24.50;;;;;;;2.33;72.49;101641.53;104334;1296;1003057;-57
2023/01/29 05:34:05;;;;;;;38.00;24.50;;;;;;;2.34;72.19;101637.98;106046;1284;22532;-59
2023/01/29 05:36:33;;;;;;;37.70;25.10;;;;;;;2.35;72.18;101638.33;106483;1272;25400;-60
2023/01/29 05:39:00;;;;;;;40.30;24.70;;;;;;;2.35;71.75;101641.93;106516;1272;25492;-59
2023/01/29 05:41:28;;;;;;;41.30;26.10;;;;;;;2.34;71.86;101649.26;106752;1273;25348;-60
2023/01/29 05:43:55;;;;;;;37.40;24.30;;;;;;;2.36;71.68;101645.20;106501;1272;25415;-60
2023/01/29 05:46:22;;;;;;;39.20;25.70;;;;;;;2.39;71.38;101644.61;106716;1272;25385;-59
2023/01/29 05:48:51;;;;;;;42.90;26.10;;;;;;;2.40;71.19;101649.95;106766;1271;25491;-58
2023/01/29 05:51:18;;;;;;;37.00;24.20;;;;;;;2.40;71.26;101655.43;106806;1271;25370;-60
2023/01/29 05:53:46;;;;;;;36.40;25.30;;;;;;;2.41;71.22;101659.89;106749;1271;22532;-59
2023/01/29 05:56:12;;;;;;;40.10;25.10;;;;;;;2.40;71.17;101659.35;105704;1278;1002628;-59
2023/01/29 05:58:40;;;;;;;39.00;25.10;;;;;;;2.40;70.94;101663.81;106726;1274;22535;-60
2023/01/29 06:01:15;;;;;;;38.30;25.40;;;;;;;2.42;71.07;101669.16;106778;1272;25406;-60
2023/01/29 06:03:42;;;;;;;37.40;25.20;;;;;;;2.39;70.88;101673.21;106744;1272;24341;-59
2023/01/29 06:06:10;;;;;;;38.20;25.90;;;;;;;2.38;70.85;101672.31;105757;1275;1003149;-59
2023/01/29 06:08:38;;;;;;;37.90;24.70;;;;;;;2.37;70.71;101675.73;106802;1272;25559;-59
2023/01/29 06:11:09;;;;;;;38.20;25.80;;;;;;;2.36;70.93;101679.28;106693;1272;25431;-59
2023/01/29 06:13:37;;;;;;;36.80;24.50;;;;;;;2.34;70.97;101676.31;106667;1278;25498;-59
2023/01/29 06:16:06;;;;;;;40.00;26.70;;;;;;;2.34;71.08;101678.55;106709;1272;25419;-59
2023/01/29 06:18:34;;;;;;;41.50;26.20;;;;;;;2.33;70.86;101682.12;106457;1272;25348;-59
2023/01/29 06:21:02;;;;;;;36.20;24.20;;;;;;;2.31;71.10;101681.71;106368;1277;25575;-58
2023/01/29 06:23:30;;;;;;;38.00;26.00;;;;;;;2.30;71.27;101683.90;105712;1277;1002877;-59
2023/01/29 06:26:02;;;;;;;37.60;25.30;;;;;;;2.29;71.12;101684.92;106009;1272;1003775;-58
2023/01/29 06:28:29;;;;;;;41.60;26.30;;;;;;;2.30;71.33;101692.64;106561;1259;25380;-58
2023/01/29 06:30:58;;;;;;;43.30;27.80;;;;;;;2.28;71.26;101699.95;106801;1271;25443;-57
2023/01/29 06:33:43;;;;;;;40.60;26.30;;;;;;;2.21;71.30;101703.36;107048;1268;25385;-58
2023/01/29 06:36:11;;;;;;;40.80;26.00;;;;;;;2.15;71.42;101702.34;106734;1271;25410;-58
2023/01/29 06:38:40;;;;;;;37.40;24.60;;;;;;;2.11;71.53;101704.95;106307;1268;1003388;-58
2023/01/29 06:41:11;;;;;;;39.00;25.20;;;;;;;2.10;71.66;101704.94;106963;1268;25345;-58
2023/01/29 06:43:38;;;;;;;42.60;26.40;;;;;;;2.11;71.64;101703.42;106782;1269;24242;-59
2023/01/29 06:46:06;;;;;;;43.30;26.50;;;;;;;2.11;71.66;101699.65;106926;1268;22543;-59
2023/01/29 06:48:34;;;;;;;40.60;24.90;;;;;;;2.12;71.60;101703.30;107139;1268;25498;-59
2023/01/29 06:51:05;;;;;;;36.50;24.00;;;;;;;2.15;71.76;101702.16;107007;1271;25285;-60
2023/01/29 06:53:32;;;;;;;42.20;25.70;;;;;;;2.15;71.66;101706.29;106992;1271;24414;-58
2023/01/29 06:55:59;;;;;;;39.30;23.80;;;;;;;2.17;71.55;101707.19;107041;1268;25349;-58
2023/01/29 06:58:27;;;;;;;35.10;24.00;;;;;;;2.18;71.73;101709.61;106139;1271;1003152;-58
2023/01/29 08:15:50;;;;;;;69.60;33.80;;;;;;;0.57;83.44;101734.04;103878;1296;1002312;-59
2023/01/29 08:18:17;;;;;;;65.60;36.70;;;;;;;1.65;76.95;101737.17;105252;1286;1002444;-59
2023/01/29 08:20:45;;;;;;;56.00;31.70;;;;;;;1.85;75.46;101737.24;106186;1281;25377;-59
2023/01/29 08:23:14;;;;;;;59.40;31.00;;;;;;;1.96;74.88;101736.02;106124;1281;25511;-59
2023/01/29 08:25:41;;;;;;;53.70;29.60;;;;;;;2.07;74.33;101738.05;105973;1281;25556;-59
2023/01/29 08:28:09;;;;;;;56.80;32.20;;;;;;;2.15;73.33;101739.48;105968;1279;207281;-60
2023/01/29 08:30:36;;;;;;;54.20;30.10;;;;;;;2.22;72.98;101736.60;106396;1267;26800;-59
2023/01/29 08:33:03;;;;;;;46.90;27.60;;;;;;;2.28;72.72;101741.55;106333;1280;22537;-59
2023/01/29 08:35:30;;;;;;;41.80;25.80;;;;;;;2.36;72.66;101743.66;105594;1279;1003300;-60
2023/01/29 13:13:32;;;;;;;15.00;11.70;;;;;;;2.05;67.92;101765.39;104628;1287;24314;-59
2023/01/29 13:15:59;;;;;;;15.60;11.30;;;;;;;2.16;67.26;101764.66;105062;1286;1002523;-58
2023/01/29 13:18:41;;;;;;;14.10;10.50;;;;;;;2.27;67.08;101766.52;105937;1284;25552;-58
2023/01/29 13:21:15;;;;;;;13.50;10.00;;;;;;;2.39;66.77;101766.34;105776;1284;343069;-58
2023/01/29 13:23:46;;;;;;;13.80;9.90;;;;;;;2.47;65.89;101771.71;105910;1281;25367;-58
2023/01/29 13:26:17;;;;;;;12.40;9.60;;;;;;;2.51;65.38;101773.52;106062;1279;22539;-58
2023/01/29 13:28:45;;;;;;;13.60;10.60;;;;;;;2.57;65.35;101771.64;106021;1284;22717;-58
2023/01/29 13:31:34;;;;;;;13.40;9.60;;;;;;;2.63;65.25;101767.19;105928;1279;24771;-58
2023/01/29 13:34:20;;;;;;;12.30;9.20;;;;;;;2.70;64.79;101768.54;105465;1280;1002979;-58
2023/01/29 13:36:57;;;;;;;12.60;9.60;;;;;;;2.76;64.39;101770.92;105335;1280;1003741;-58
2023/01/29 13:39:38;;;;;;;12.20;9.60;;;;;;;2.80;64.16;101768.98;106581;1269;22614;-58
2023/01/29 13:42:18;;;;;;;11.40;9.20;;;;;;;2.85;64.02;101769.13;106830;1267;25416;-58
2023/01/29 13:44:50;;;;;;;13.70;10.00;;;;;;;3.00;64.05;101772.07;106276;1267;1016413;-58
2023/01/29 13:47:28;;;;;;;15.00;9.20;;;;;;;2.96;63.75;101774.36;107099;1268;22651;-59
2023/01/29 13:49:59;;;;;;;12.20;8.60;;;;;;;2.94;63.65;101776.39;106973;1268;22527;-59
2023/01/29 13:52:32;;;;;;;;;;;;;;;2.96;63.44;101773.02;107125;1269;22504;-57
2023/01/29 13:55:30;;;;;;;13.10;9.30;;;;;;;2.99;63.24;101772.92;107023;1268;25395;-57
2023/01/29 13:58:05;;;;;;;15.30;9.70;;;;;;;2.99;62.98;101770.18;106582;1275;25344;-58
2023/01/29 14:00:34;;;;;;;13.10;9.10;;;;;;;3.00;62.61;101769.33;106606;1274;25351;-57
2023/01/29 14:03:07;;;;;;;13.80;9.50;;;;;;;2.98;62.59;101767.76;106709;1274;24627;-57
2023/01/29 14:05:42;;;;;;;12.20;8.90;;;;;;;2.98;62.76;101769.30;105869;1273;1003424;-58
2023/01/29 14:08:12;;;;;;;11.70;8.20;;;;;;;3.01;62.88;101774.33;106589;1273;25364;-59
2023/01/29 14:10:40;;;;;;;11.40;8.10;;;;;;;3.02;62.51;101774.36;106652;1277;25592;-58
2023/01/29 14:13:17;;;;;;;12.80;8.10;;;;;;;3.06;62.63;101780.30;106600;1277;22529;-58
2023/01/29 14:15:47;;;;;;;14.00;8.60;;;;;;;3.08;62.64;101778.27;105870;1275;1003683;-58
2023/01/29 14:18:15;;;;;;;14.50;9.00;;;;;;;3.10;62.49;101780.74;106349;1277;25360;-58
2023/01/29 14:20:45;;;;;;;12.10;8.70;;;;;;;3.11;62.36;101782.98;105889;1274;1003056;-58
2023/01/29 14:23:39;;;;;;;11.30;8.20;;;;;;;3.13;61.98;101784.23;106273;1277;22921;-60
2023/01/29 14:26:46;;;;;;;13.20;8.30;;;;;;;3.12;61.88;101783.02;106194;1276;26853;-58
2023/01/29 14:29:23;;;;;;;13.50;8.60;;;;;;;3.11;61.56;101790.36;106134;1276;22527;-59
2023/01/29 14:32:06;;;;;;;13.60;8.20;;;;;;;3.10;61.63;101793.58;106197;1277;22602;-59
2023/01/29 14:35:01;;;;;;;10.70;8.10;;;;;;;3.10;61.54;101793.92;106269;1268;22534;-60
2023/01/29 14:37:34;;;;;;;13.00;9.20;;;;;;;3.09;61.34;101797.33;106269;1274;25905;-59
2023/01/29 14:40:10;;;;;;;12.10;8.30;;;;;;;3.08;61.55;101797.30;106306;1276;22610;-58
2023/01/29 14:43:01;;;;;;;13.10;8.20;;;;;;;3.08;61.20;101795.95;106299;1275;25463;-60
2023/01/29 14:45:29;;;;;;;12.60;8.70;;;;;;;3.08;61.08;101796.46;106399;1275;25367;-60
2023/01/29 14:48:10;;;;;;;10.90;7.90;;;;;;;3.07;60.97;101797.11;105574;1277;1003206;-58
2023/01/29 14:50:47;;;;;;;9.60;7.60;;;;;;;3.06;60.73;101797.77;106131;1276;25819;-58
2023/01/29 14:53:29;;;;;;;11.30;8.50;;;;;;;3.07;61.21;101803.11;105647;1274;1002894;-59
2023/01/29 14:56:13;;;;;;;9.80;7.70;;;;;;;3.10;61.32;101804.39;105406;1279;1002900;-60
2023/01/29 14:58:51;;;;;;;11.00;7.70;;;;;;;3.12;61.06;101805.48;106225;1278;25458;-58
2023/01/29 15:01:21;;;;;;;11.40;8.40;;;;;;;3.10;60.93;101808.34;106246;1275;22533;-59
2023/01/29 15:03:56;;;;;;;9.70;7.40;;;;;;;2.93;61.61;101809.77;106237;1277;26770;-60
2023/01/29 15:06:37;;;;;;;10.50;7.90;;;;;;;2.99;61.28;101808.23;106213;1279;25434;-60
2023/01/29 15:09:23;;;;;;;11.30;7.90;;;;;;;3.12;60.75;101813.17;106261;1277;25361;-60
2023/01/29 15:12:02;;;;;;;12.90;8.40;;;;;;;3.13;60.46;101814.41;106290;1281;25427;-60
2023/01/29 15:14:35;;;;;;;10.60;7.80;;;;;;;3.13;60.90;101819.20;105679;1269;1003547;-59
2023/01/29 15:17:08;;;;;;;13.30;8.90;;;;;;;3.11;60.71;101822.25;106437;1268;25417;-59
2023/01/29 15:19:43;;;;;;;9.30;7.70;;;;;;;3.10;60.86;101824.45;106764;1270;22649;-59
2023/01/29 15:22:12;;;;;;;8.80;7.40;;;;;;;3.09;60.99;101824.77;106792;1269;24032;-60
2023/01/29 15:24:40;;;;;;;11.30;8.30;;;;;;;3.08;61.26;101827.83;106207;1269;1003293;-59
2023/01/29 15:27:16;;;;;;;10.70;8.10;;;;;;;3.08;61.38;101827.99;106893;1269;22892;-59
2023/01/29 15:29:47;;;;;;;10.90;8.20;;;;;;;3.08;61.20;101831.94;106689;1274;23004;-59
2023/01/29 15:32:47;;;;;;;13.20;10.40;;;;;;;3.07;61.27;101832.59;106748;1268;22534;-59
2023/01/29 15:35:36;;;;;;;11.20;8.20;;;;;;;3.09;61.20;101839.67;106215;1283;25349;-58
2023/01/29 15:38:25;;;;;;;14.90;9.70;;;;;;;3.11;61.20;101844.34;106318;1280;25486;-60
2023/01/29 15:40:58;;;;;;;15.00;9.60;;;;;;;3.14;61.04;101844.94;106123;1275;25585;-60
2023/01/29 15:43:42;;;;;;;13.10;9.30;;;;;;;3.14;61.09;101848.05;105265;1275;1003109;-59
2023/01/29 15:46:19;;;;;;;12.60;9.20;;;;;;;3.17;61.14;101846.90;106157;1278;24485;-59
2023/01/29 15:48:49;;;;;;;18.50;11.40;;;;;;;3.20;61.53;101849.03;106367;1275;25396;-60
2023/01/29 15:51:19;;;;;;;12.80;9.50;;;;;;;3.23;61.29;101848.43;106303;1278;24223;-59
2023/01/29 15:53:49;;;;;;;12.70;8.30;;;;;;;3.24;61.17;101855.18;106382;1278;22566;-59
2023/01/29 15:56:22;;;;;;;12.90;7.70;;;;;;;3.28;61.19;101854.73;106211;1276;25377;-59
2023/01/29 15:58:50;;;;;;;10.20;7.40;;;;;;;3.30;61.33;101852.91;106093;1280;25428;-59
2023/01/29 16:01:17;;;;;;;8.80;7.50;;;;;;;3.31;61.28;101856.52;105617;1283;23882;-59
2023/01/29 20:11:29;;;;;;;11.60;8.30;;;;;;;2.65;66.09;101948.30;104661;1299;24250;-60
2023/01/29 20:13:58;;;;;;;12.20;8.00;;;;;;;2.76;65.18;101952.04;105905;1287;25326;-60
2023/01/29 20:16:26;;;;;;;10.90;7.70;;;;;;;2.85;65.13;101954.70;105970;1281;25361;-60
2023/01/29 20:18:53;;;;;;;11.30;8.40;;;;;;;2.94;65.00;101954.45;105926;1279;222916;-59
2023/01/29 20:21:20;;;;;;;10.70;8.10;;;;;;;3.02;64.50;101955.89;106238;1284;26178;-58
2023/01/29 20:23:49;;;;;;;11.70;8.40;;;;;;;3.09;64.16;101957.11;106377;1279;24057;-58
2023/01/29 20:26:16;;;;;;;10.90;7.60;;;;;;;3.15;64.04;101957.44;106326;1279;24218;-58
2023/01/29 20:28:47;;;;;;;10.70;7.70;;;;;;;3.19;63.71;101956.69;106247;1281;25466;-58
2023/01/29 20:31:15;;;;;;;10.10;7.80;;;;;;;3.23;63.44;101956.81;106327;1281;25428;-58
2023/01/29 20:33:43;;;;;;;9.60;7.50;;;;;;;3.27;62.92;101956.42;106140;1279;22646;-59
2023/01/29 20:36:11;;;;;;;11.50;7.80;;;;;;;3.28;62.85;101956.43;105475;1279;1016282;-60
2023/01/29 20:38:38;;;;;;;9.50;7.70;;;;;;;3.31;62.90;101955.14;106246;1279;24258;-58
2023/01/29 20:41:07;;;;;;;9.90;7.20;;;;;;;3.33;62.32;101954.33;105916;1279;25386;-58
2023/01/29 20:43:35;;;;;;;11.30;7.80;;;;;;;3.32;62.19;101958.06;105219;1284;1003389;-58
2023/01/29 20:46:03;;;;;;;10.80;7.90;;;;;;;3.31;62.46;101955.30;106358;1279;25435;-59
2023/01/29 20:48:32;;;;;;;11.60;8.70;;;;;;;3.32;62.36;101958.77;105399;1278;1002881;-59
2023/01/29 20:51:08;;;;;;;11.90;8.10;;;;;;;3.33;62.22;101963.07;106281;1279;23317;-59
2023/01/29 20:53:35;;;;;;;11.40;8.20;;;;;;;3.33;62.58;101964.62;106316;1278;24284;-59
2023/01/29 20:56:03;;;;;;;10.20;7.50;;;;;;;3.33;62.59;101964.94;106302;1281;24390;-59
2023/01/29 20:58:32;;;;;;;9.50;7.40;;;;;;;3.34;63.24;101966.52;106213;1279;25243;-58
2023/01/29 21:00:59;;;;;;;8.60;6.50;;;;;;;3.36;63.11;101967.10;106356;1278;26665;-58
2023/01/29 21:03:26;;;;;;;9.70;7.40;;;;;;;3.39;63.25;101970.08;105417;1285;1002979;-58
2023/01/29 21:05:53;;;;;;;11.50;7.80;;;;;;;3.41;63.23;101969.63;106355;1280;25388;-58
2023/01/29 21:08:24;;;;;;;10.70;7.20;;;;;;;3.43;63.07;101968.48;106201;1279;25412;-58
2023/01/29 21:10:51;;;;;;;9.40;7.80;;;;;;;3.43;62.85;101965.23;106368;1278;25428;-58
2023/01/29 21:13:19;;;;;;;8.50;7.40;;;;;;;3.43;62.77;101964.04;106375;1281;25585;-59
2023/01/29 21:15:48;;;;;;;10.80;8.20;;;;;;;3.43;62.78;101968.31;106383;1278;25373;-58
2023/01/29 21:18:15;;;;;;;11.00;7.50;;;;;;;3.41;62.66;101965.16;105613;1278;1005792;-58
2023/01/29 21:20:42;;;;;;;11.70;7.90;;;;;;;3.43;62.70;101964.37;106314;1279;25431;-59
2023/01/29 21:23:10;;;;;;;11.90;8.30;;;;;;;3.43;62.62;101964.39;106414;1279;25428;-58
2023/01/29 21:25:37;;;;;;;11.40;8.20;;;;;;;3.43;62.43;101966.27;106169;1279;23387;-59
2023/01/29 21:28:04;;;;;;;10.70;7.60;;;;;;;3.42;62.62;101971.05;106280;1279;25447;-58
2023/01/29 21:30:32;;;;;;;10.80;8.40;;;;;;;3.40;62.56;101968.93;106145;1279;25496;-58
2023/01/29 21:33:00;;;;;;;11.70;8.30;;;;;;;3.40;62.75;101968.73;105210;1284;1002958;-59
2023/01/29 21:35:27;;;;;;;11.70;9.40;;;;;;;3.40;63.26;101963.77;106361;1278;25622;-58
2023/01/29 21:37:54;;;;;;;11.30;8.50;;;;;;;3.42;63.14;101966.23;105698;1278;1003522;-58
2023/01/29 21:40:23;;;;;;;10.90;8.30;;;;;;;3.44;63.47;101965.60;106459;1278;25414;-58
2023/01/29 21:45:40;;;;;;;11.80;9.20;;;;;;;3.48;63.95;101964.99;105225;1281;1003040;-59
2023/01/29 21:48:08;;;;;;;11.90;9.30;;;;;;;3.48;63.57;101963.13;106362;1278;23630;-59
2023/01/29 21:50:37;;;;;;;12.20;9.00;;;;;;;3.46;63.68;101959.64;106358;1279;25394;-58
2023/01/29 21:53:04;;;;;;;12.40;9.40;;;;;;;3.41;63.63;101960.04;106430;1278;25067;-59
2023/01/29 21:55:33;;;;;;;11.90;9.30;;;;;;;3.39;63.91;101963.73;106300;1278;25373;-59
2023/01/29 21:58:01;;;;;;;10.60;8.20;;;;;;;3.39;64.22;101968.37;105643;1281;1002862;-58
2023/01/29 22:00:28;;;;;;;13.50;9.00;;;;;;;3.39;64.32;101966.65;106457;1279;25405;-58
